createdAt,value
2019-05-01T00:00:52.352Z,15.32
2019-05-01T00:03:42.341Z,15.32
2019-05-01T00:06:16.003Z,15.31
2019-05-01T00:08:48.027Z,15.26
2019-05-01T00:11:19.992Z,15.22
2019-05-01T00:13:51.953Z,15.13
2019-05-01T00:16:24.788Z,15.03
2019-05-01T00:18:56.743Z,14.98
2019-05-01T00:21:28.694Z,14.92
2019-05-01T00:24:00.686Z,14.87
2019-05-01T00:26:32.628Z,14.87
2019-05-01T00:29:04.648Z,14.88
2019-05-01T00:31:36.606Z,14.88
2019-05-01T00:34:08.568Z,14.90
2019-05-01T00:36:40.521Z,14.89
2019-05-01T00:39:13.918Z,14.87
2019-05-01T00:41:45.927Z,14.83
2019-05-01T00:44:17.891Z,14.74
2019-05-01T00:46:49.905Z,14.65
2019-05-01T00:49:22.013Z,14.54
2019-05-01T00:51:53.964Z,14.44
2019-05-01T00:54:27.105Z,14.44
2019-05-01T00:57:06.556Z,14.40
2019-05-01T00:59:40.159Z,14.38
2019-05-01T01:02:13.771Z,14.33
2019-05-01T01:04:45.787Z,14.25
2019-05-01T01:07:17.788Z,14.17
2019-05-01T01:09:49.821Z,14.14
2019-05-01T01:12:22.229Z,14.14
2019-05-01T01:14:54.251Z,14.11
2019-05-01T01:17:26.208Z,14.10
2019-05-01T01:19:58.176Z,14.10
2019-05-01T01:22:30.215Z,14.11
2019-05-01T01:25:02.765Z,14.13
2019-05-01T01:27:34.809Z,14.08
2019-05-01T01:30:10.073Z,14.04
2019-05-01T01:32:42.031Z,14.01
2019-05-01T01:35:14.429Z,13.97
2019-05-01T01:37:46.376Z,13.93
2019-05-01T01:40:18.714Z,13.93
2019-05-01T01:42:52.372Z,13.93
2019-05-01T01:45:36.344Z,13.93
2019-05-01T01:48:09.903Z,13.90
2019-05-01T01:50:44.833Z,13.93
2019-05-01T01:53:21.147Z,13.97
2019-05-01T01:55:54.026Z,13.99
2019-05-01T01:58:26.995Z,13.97
2019-05-01T02:01:19.517Z,13.93
2019-05-01T02:04:04.757Z,13.84
2019-05-01T02:06:36.972Z,13.85
2019-05-01T02:09:09.979Z,13.87
2019-05-01T02:11:42.334Z,13.87
2019-05-01T02:14:14.307Z,13.88
2019-05-01T02:16:46.269Z,13.89
2019-05-01T02:19:18.403Z,13.86
2019-05-01T02:21:50.341Z,13.87
2019-05-01T02:24:22.307Z,13.81
2019-05-01T02:26:55.897Z,13.76
2019-05-01T02:29:30.974Z,13.74
2019-05-01T02:32:04.284Z,13.67
2019-05-01T02:34:39.941Z,13.58
2019-05-01T02:37:14.079Z,13.50
2019-05-01T02:39:48.940Z,13.12
2019-05-01T02:42:24.856Z,13.51
2019-05-01T02:45:00.116Z,13.52
2019-05-01T02:47:36.248Z,13.52
2019-05-01T02:50:13.981Z,13.51
2019-05-01T02:52:46.217Z,13.50
2019-05-01T02:55:20.185Z,13.44
2019-05-01T02:57:53.465Z,13.48
2019-05-01T03:00:25.957Z,13.50
2019-05-01T03:02:58.675Z,13.49
2019-05-01T03:05:31.085Z,13.38
2019-05-01T03:08:03.333Z,13.31
2019-05-01T03:10:35.700Z,13.36
2019-05-01T03:13:08.228Z,13.34
2019-05-01T03:15:40.556Z,13.36
2019-05-01T03:18:30.285Z,13.43
2019-05-01T03:21:06.623Z,13.46
2019-05-01T03:23:58.532Z,13.48
2019-05-01T03:26:31.203Z,13.43
2019-05-01T03:29:04.969Z,13.36
2019-05-01T03:31:36.930Z,13.34
2019-05-01T03:34:09.302Z,13.33
2019-05-01T03:36:41.315Z,13.31
2019-05-01T03:39:13.415Z,13.29
2019-05-01T03:41:46.939Z,13.27
2019-05-01T03:44:18.961Z,13.23
2019-05-01T03:46:51.124Z,13.24
2019-05-01T03:49:23.631Z,13.27
2019-05-01T03:51:55.581Z,13.24
2019-05-01T03:54:28.679Z,13.23
2019-05-01T03:57:01.002Z,13.18
2019-05-01T03:59:33.564Z,13.16
2019-05-01T04:02:10.659Z,13.15
2019-05-01T04:04:42.739Z,13.13
2019-05-01T04:07:14.779Z,13.18
2019-05-01T04:09:47.065Z,13.22
2019-05-01T04:12:19.427Z,13.25
2019-05-01T04:14:51.656Z,13.28
2019-05-01T04:17:25.749Z,13.32
2019-05-01T04:19:58.422Z,13.31
2019-05-01T04:22:30.503Z,13.24
2019-05-01T04:25:03.567Z,13.18
2019-05-01T04:27:38.320Z,13.13
2019-05-01T04:30:20.965Z,13.15
2019-05-01T04:32:55.282Z,13.11
2019-05-01T04:35:29.260Z,13.11
2019-05-01T04:38:01.783Z,13.19
2019-05-01T04:40:33.873Z,13.20
2019-05-01T04:43:05.838Z,13.17
2019-05-01T04:45:37.861Z,13.15
2019-05-01T04:48:10.449Z,13.12
2019-05-01T04:50:42.851Z,13.10
2019-05-01T04:53:16.487Z,13.06
2019-05-01T04:55:49.240Z,13.06
2019-05-01T04:58:22.304Z,13.06
2019-05-01T05:00:54.530Z,13.04
2019-05-01T05:03:28.184Z,13.01
2019-05-01T05:06:01.090Z,13.06
2019-05-01T05:08:33.508Z,13.13
2019-05-01T05:11:10.163Z,13.14
2019-05-01T05:14:00.654Z,13.18
2019-05-01T05:16:50.524Z,13.18
2019-05-01T05:19:22.552Z,13.18
2019-05-01T05:21:54.564Z,13.21
2019-05-01T05:24:26.588Z,13.20
2019-05-01T05:27:00.945Z,13.16
2019-05-01T05:29:33.710Z,13.18
2019-05-01T05:32:08.077Z,13.26
2019-05-01T05:34:43.154Z,13.31
2019-05-01T05:37:21.118Z,13.30
2019-05-01T05:39:55.984Z,13.26
2019-05-01T05:42:28.734Z,13.24
2019-05-01T05:45:00.931Z,13.16
2019-05-01T05:47:33.250Z,13.12
2019-05-01T05:50:08.170Z,13.16
2019-05-01T05:52:46.905Z,13.18
2019-05-01T05:55:25.294Z,13.27
2019-05-01T05:58:03.264Z,13.32
2019-05-01T06:00:40.034Z,13.37
2019-05-01T06:03:35.178Z,13.42
2019-05-01T06:06:15.008Z,13.45
2019-05-01T06:08:51.575Z,13.45
2019-05-01T06:11:29.745Z,13.46
2019-05-01T06:14:21.796Z,13.41
2019-05-01T06:17:11.041Z,13.38
2019-05-01T06:19:50.952Z,13.39
2019-05-01T06:22:28.816Z,13.34
2019-05-01T06:25:03.607Z,13.34
2019-05-01T06:27:36.485Z,13.32
2019-05-01T06:30:11.025Z,13.26
2019-05-01T06:32:44.078Z,13.18
2019-05-01T06:35:16.120Z,13.16
2019-05-01T06:38:10.758Z,13.16
2019-05-01T06:40:46.997Z,13.22
2019-05-01T06:43:28.182Z,13.30
2019-05-01T06:46:11.279Z,13.37
2019-05-01T06:48:54.579Z,13.42
2019-05-01T06:51:34.396Z,13.43
2019-05-01T06:54:11.201Z,13.49
2019-05-01T06:56:45.172Z,13.59
2019-05-01T06:59:19.220Z,13.64
2019-05-01T07:01:53.123Z,13.68
2019-05-01T07:04:26.893Z,13.68
2019-05-01T07:07:06.847Z,13.62
2019-05-01T07:09:37.969Z,13.62
2019-05-01T07:12:12.307Z,13.65
2019-05-01T07:14:47.075Z,13.65
2019-05-01T07:17:18.420Z,13.67
2019-05-01T07:20:12.070Z,13.69
2019-05-01T07:22:45.101Z,13.74
2019-05-01T07:25:17.498Z,13.78
2019-05-01T07:27:49.442Z,13.79
2019-05-01T07:30:32.674Z,13.85
2019-05-01T07:33:05.229Z,13.86
2019-05-01T07:35:38.667Z,13.88
2019-05-01T07:38:11.226Z,13.80
2019-05-01T07:40:43.653Z,13.76
2019-05-01T07:43:32.554Z,13.74
2019-05-01T07:46:06.714Z,13.78
2019-05-01T07:48:43.331Z,13.87
2019-05-01T07:51:15.542Z,13.96
2019-05-01T07:53:47.825Z,14.05
2019-05-01T07:56:22.952Z,14.08
2019-05-01T07:58:54.588Z,14.13
2019-05-01T08:01:40.414Z,14.14
2019-05-01T08:04:13.824Z,14.08
2019-05-01T08:06:46.018Z,14.10
2019-05-01T08:09:17.977Z,14.14
2019-05-01T08:11:49.927Z,14.18
2019-05-01T08:14:21.896Z,14.25
2019-05-01T08:16:54.046Z,14.31
2019-05-01T08:19:27.656Z,14.35
2019-05-01T08:22:10.199Z,14.35
2019-05-01T08:24:42.165Z,14.27
2019-05-01T08:27:20.146Z,14.28
2019-05-01T08:29:51.067Z,14.34
2019-05-01T08:32:27.419Z,14.38
2019-05-01T08:35:03.673Z,14.42
2019-05-01T08:37:35.644Z,14.44
2019-05-01T08:40:08.779Z,14.35
2019-05-01T08:42:42.577Z,14.36
2019-05-01T08:45:35.780Z,14.45
2019-05-01T08:48:10.594Z,14.52
2019-05-01T08:50:42.545Z,14.57
2019-05-01T08:53:18.106Z,14.65
2019-05-01T08:55:48.167Z,14.67
2019-05-01T08:58:20.144Z,14.64
2019-05-01T09:00:52.091Z,14.68
2019-05-01T09:03:24.059Z,14.75
2019-05-01T09:05:57.390Z,14.81
2019-05-01T09:08:31.959Z,14.87
2019-05-01T09:11:03.582Z,14.89
2019-05-01T09:13:35.532Z,14.88
2019-05-01T09:16:07.500Z,14.86
2019-05-01T09:18:39.526Z,14.88
2019-05-01T09:21:11.496Z,14.89
2019-05-01T09:23:46.242Z,14.90
2019-05-01T09:26:18.882Z,14.91
2019-05-01T09:29:01.547Z,14.90
2019-05-01T09:31:35.596Z,14.89
2019-05-01T09:34:09.439Z,14.90
2019-05-01T09:36:41.610Z,14.92
2019-05-01T09:39:15.342Z,14.87
2019-05-01T09:41:48.782Z,14.89
2019-05-01T09:44:20.940Z,14.71
2019-05-01T09:46:52.959Z,15.05
2019-05-01T09:49:25.052Z,15.08
2019-05-01T09:51:58.711Z,15.08
2019-05-01T09:54:35.235Z,15.06
2019-05-01T09:57:07.194Z,15.10
2019-05-01T09:59:39.144Z,15.15
2019-05-01T10:02:12.468Z,15.15
2019-05-01T10:04:44.409Z,15.14
2019-05-01T10:07:16.446Z,15.16
2019-05-01T10:09:52.304Z,15.15
2019-05-01T10:12:22.037Z,15.14
2019-05-01T10:14:54.059Z,15.16
2019-05-01T10:17:26.024Z,15.18
2019-05-01T10:19:57.964Z,15.23
2019-05-01T10:22:32.952Z,15.27
2019-05-01T10:25:08.635Z,15.28
2019-05-01T10:27:43.041Z,15.37
2019-05-01T10:30:17.625Z,15.44
2019-05-01T10:32:57.924Z,15.44
2019-05-01T10:35:41.825Z,15.46
2019-05-01T10:38:04.654Z,15.47
2019-05-01T10:40:37.257Z,15.50
2019-05-01T10:43:09.201Z,15.55
2019-05-01T10:45:41.225Z,15.58
2019-05-01T10:48:13.212Z,15.59
2019-05-01T10:50:45.195Z,15.57
2019-05-01T10:53:17.158Z,15.46
2019-05-01T10:55:49.408Z,15.45
2019-05-01T10:58:21.349Z,15.44
2019-05-01T11:00:55.052Z,15.42
2019-05-01T11:03:27.342Z,15.40
2019-05-01T11:05:59.295Z,15.39
2019-05-01T11:08:31.215Z,15.40
2019-05-01T11:11:03.269Z,15.35
2019-05-01T11:13:35.225Z,15.32
2019-05-01T11:16:07.310Z,15.31
2019-05-01T11:18:39.321Z,15.33
2019-05-01T11:21:11.339Z,15.35
2019-05-01T11:23:43.284Z,15.38
2019-05-01T11:26:15.363Z,15.39
2019-05-01T11:28:47.532Z,15.40
2019-05-01T11:31:24.064Z,15.41
2019-05-01T11:33:57.675Z,15.45
2019-05-01T11:36:37.082Z,15.45
2019-05-01T11:39:13.993Z,15.45
2019-05-01T11:41:47.585Z,15.48
2019-05-01T11:44:19.541Z,15.49
2019-05-01T11:46:51.837Z,15.51
2019-05-01T11:49:23.780Z,15.52
2019-05-01T11:51:55.783Z,15.55
2019-05-01T11:54:28.030Z,15.56
2019-05-01T11:57:00.009Z,15.55
2019-05-01T11:59:32.846Z,15.55
2019-05-01T12:02:05.038Z,15.52
2019-05-01T12:04:37.060Z,15.53
2019-05-01T12:07:09.027Z,15.56
2019-05-01T12:09:40.984Z,15.56
2019-05-01T12:12:17.226Z,15.56
2019-05-01T12:14:49.192Z,15.56
2019-05-01T12:17:28.677Z,15.54
2019-05-01T12:20:00.718Z,15.56
2019-05-01T12:22:33.050Z,15.61
2019-05-01T12:25:06.106Z,15.63
2019-05-01T12:27:38.318Z,15.65
2019-05-01T12:30:13.208Z,15.63
2019-05-01T12:32:45.215Z,15.59
2019-05-01T12:35:17.544Z,15.58
2019-05-01T12:37:49.766Z,15.54
2019-05-01T12:40:22.365Z,15.51
2019-05-01T12:42:54.316Z,15.52
2019-05-01T12:45:26.276Z,15.52
2019-05-01T12:48:00.045Z,15.51
2019-05-01T12:50:32.334Z,15.52
2019-05-01T12:53:06.239Z,15.51
2019-05-01T12:55:56.348Z,15.52
2019-05-01T12:58:28.312Z,15.53
2019-05-01T13:01:00.255Z,15.56
2019-05-01T13:03:32.210Z,15.61
2019-05-01T13:06:04.172Z,15.66
2019-05-01T13:08:36.127Z,15.66
2019-05-01T13:11:08.250Z,15.67
2019-05-01T13:13:41.088Z,15.66
2019-05-01T13:16:13.179Z,15.63
2019-05-01T13:18:45.151Z,15.58
2019-05-01T13:21:17.100Z,15.59
2019-05-01T13:23:49.133Z,15.52
2019-05-01T13:26:28.522Z,15.51
2019-05-01T13:29:02.116Z,15.45
2019-05-01T13:31:35.710Z,15.36
2019-05-01T13:34:09.264Z,15.35
2019-05-01T13:36:41.227Z,15.33
2019-05-01T13:39:13.714Z,15.32
2019-05-01T13:41:45.664Z,15.33
2019-05-01T13:44:17.687Z,15.34
2019-05-01T13:46:49.709Z,15.35
2019-05-01T13:49:21.728Z,15.37
2019-05-01T13:51:53.678Z,15.35
2019-05-01T13:54:25.639Z,15.31
2019-05-01T13:56:57.583Z,15.26
2019-05-01T13:59:29.609Z,15.20
2019-05-01T14:02:01.559Z,15.19
2019-05-01T14:04:34.285Z,15.17
2019-05-01T14:07:16.202Z,15.10
2019-05-01T14:09:39.979Z,15.07
2019-05-01T14:12:11.928Z,15.11
2019-05-01T14:14:43.886Z,15.16
2019-05-01T14:17:15.851Z,15.19
2019-05-01T14:20:05.453Z,15.14
2019-05-01T14:22:39.041Z,15.12
2019-05-01T14:25:12.513Z,15.15
2019-05-01T14:27:44.808Z,15.17
2019-05-01T14:30:18.624Z,15.19
2019-05-01T14:32:51.798Z,15.19
2019-05-01T14:35:24.078Z,15.21
2019-05-01T14:37:56.044Z,15.21
2019-05-01T14:40:27.998Z,15.19
2019-05-01T14:42:59.957Z,15.19
2019-05-01T14:45:32.287Z,15.19
2019-05-01T14:48:04.626Z,15.17
2019-05-01T14:50:36.573Z,15.16
2019-05-01T14:53:08.542Z,15.18
2019-05-01T14:55:40.487Z,15.18
2019-05-01T14:58:12.480Z,15.12
2019-05-01T15:00:44.490Z,15.04
2019-05-01T15:03:16.444Z,14.92
2019-05-01T15:05:48.419Z,14.86
2019-05-01T15:08:20.369Z,14.86
2019-05-01T15:10:52.349Z,14.87
2019-05-01T15:13:42.202Z,14.83
2019-05-01T15:16:21.662Z,14.76
2019-05-01T15:19:13.930Z,14.78
2019-05-01T15:21:45.969Z,14.82
2019-05-01T15:24:18.051Z,14.79
2019-05-01T15:26:50.369Z,14.77
2019-05-01T15:29:22.333Z,14.75
2019-05-01T15:31:54.595Z,14.76
2019-05-01T15:34:26.724Z,14.75
2019-05-01T15:36:58.676Z,14.78
2019-05-01T15:39:32.283Z,14.81
2019-05-01T15:42:08.433Z,14.76
2019-05-01T15:44:41.268Z,14.76
2019-05-01T15:47:17.593Z,14.78
2019-05-01T15:49:49.620Z,14.83
2019-05-01T15:52:21.585Z,14.85
2019-05-01T15:54:55.161Z,14.79
2019-05-01T15:57:29.920Z,14.77
2019-05-01T16:00:03.785Z,14.76
2019-05-01T16:02:35.821Z,14.77
2019-05-01T16:05:08.522Z,14.75
2019-05-01T16:07:40.475Z,14.71
2019-05-01T16:10:15.668Z,14.68
2019-05-01T16:12:51.731Z,14.65
2019-05-01T16:15:25.331Z,14.63
2019-05-01T16:17:57.285Z,14.62
2019-05-01T16:20:29.256Z,14.66
2019-05-01T16:23:01.211Z,14.70
2019-05-01T16:25:34.932Z,14.73
2019-05-01T16:28:09.963Z,14.70
2019-05-01T16:30:41.988Z,14.68
2019-05-01T16:33:14.036Z,14.67
2019-05-01T16:35:58.372Z,14.62
2019-05-01T16:38:50.256Z,14.61
2019-05-01T16:41:22.618Z,14.59
2019-05-01T16:43:54.793Z,14.58
2019-05-01T16:46:26.752Z,14.58
2019-05-01T16:48:58.744Z,14.56
2019-05-01T16:51:30.900Z,14.55
2019-05-01T16:54:02.869Z,14.43
2019-05-01T16:56:34.823Z,14.39
2019-05-01T16:59:07.426Z,14.40
2019-05-01T17:01:41.092Z,14.43
2019-05-01T17:04:15.307Z,14.47
2019-05-01T17:07:01.142Z,14.47
2019-05-01T17:09:37.486Z,14.46
2019-05-01T17:12:10.913Z,14.43
2019-05-01T17:14:43.891Z,14.42
2019-05-01T17:17:21.519Z,14.40
2019-05-01T17:19:53.460Z,14.37
2019-05-01T17:22:26.630Z,14.35
2019-05-01T17:24:59.008Z,14.33
2019-05-01T17:27:33.742Z,14.33
2019-05-01T17:30:14.862Z,14.27
2019-05-01T17:32:46.892Z,14.18
2019-05-01T17:35:19.336Z,14.13
2019-05-01T17:37:51.353Z,14.14
2019-05-01T17:40:23.305Z,14.13
2019-05-01T17:42:56.076Z,14.01
2019-05-01T17:45:29.801Z,13.91
2019-05-01T17:48:02.172Z,13.89
2019-05-01T17:50:34.378Z,13.90
2019-05-01T17:53:06.592Z,13.90
2019-05-01T17:55:38.538Z,13.85
2019-05-01T17:58:10.498Z,13.86
2019-05-01T18:01:00.494Z,13.90
2019-05-01T18:03:34.262Z,13.87
2019-05-01T18:06:13.857Z,13.82
2019-05-01T18:08:45.815Z,13.77
2019-05-01T18:11:19.384Z,13.73
2019-05-01T18:13:51.402Z,13.70
2019-05-01T18:16:26.181Z,13.70
2019-05-01T18:18:58.477Z,13.73
2019-05-01T18:21:30.528Z,13.76
2019-05-01T18:24:06.881Z,13.75
2019-05-01T18:26:43.429Z,13.74
2019-05-01T18:29:40.061Z,13.75
2019-05-01T18:32:12.828Z,13.73
2019-05-01T18:34:44.763Z,13.73
2019-05-01T18:37:18.502Z,13.73
2019-05-01T18:39:51.848Z,13.71
2019-05-01T18:42:24.416Z,13.74
2019-05-01T18:44:56.536Z,13.74
2019-05-01T18:47:29.607Z,13.71
2019-05-01T18:50:01.629Z,13.68
2019-05-01T18:52:33.781Z,13.69
2019-05-01T18:55:06.771Z,13.67
2019-05-01T18:57:40.917Z,13.66
2019-05-01T19:00:16.280Z,13.65
2019-05-01T19:02:48.308Z,13.60
2019-05-01T19:05:22.130Z,13.57
2019-05-01T19:07:55.807Z,13.54
2019-05-01T19:10:27.724Z,13.54
2019-05-01T19:12:59.668Z,13.57
2019-05-01T19:15:33.417Z,13.55
2019-05-01T19:18:06.101Z,13.49
2019-05-01T19:20:38.026Z,13.46
2019-05-01T19:23:10.035Z,13.40
2019-05-01T19:25:41.978Z,13.42
2019-05-01T19:28:15.939Z,13.40
2019-05-01T19:30:47.896Z,13.40
2019-05-01T19:33:21.437Z,13.38
2019-05-01T19:35:53.463Z,13.29
2019-05-01T19:38:29.367Z,13.26
2019-05-01T19:41:03.577Z,13.27
2019-05-01T19:43:35.800Z,13.26
2019-05-01T19:46:06.869Z,13.26
2019-05-01T19:48:39.290Z,13.24
2019-05-01T19:51:11.289Z,13.21
2019-05-01T19:53:46.547Z,13.21
2019-05-01T19:56:21.572Z,13.19
2019-05-01T19:58:52.891Z,13.20
2019-05-01T20:01:28.681Z,13.21
2019-05-01T20:04:00.778Z,13.20
2019-05-01T20:06:33.030Z,13.21
2019-05-01T20:09:07.001Z,13.23
2019-05-01T20:11:39.098Z,13.26
2019-05-01T20:14:11.039Z,13.24
2019-05-01T20:16:42.994Z,13.22
2019-05-01T20:19:15.021Z,13.19
2019-05-01T20:21:46.986Z,13.20
2019-05-01T20:24:19.432Z,13.18
2019-05-01T20:26:51.756Z,13.15
2019-05-01T20:32:14.705Z,13.13
2019-05-01T20:34:47.981Z,13.14
2019-05-01T20:37:21.167Z,13.15
2019-05-01T20:39:53.135Z,13.14
2019-05-01T20:42:25.083Z,13.12
2019-05-01T20:45:04.449Z,13.08
2019-05-01T20:47:35.283Z,13.07
2019-05-01T20:50:07.261Z,13.07
2019-05-01T20:52:40.821Z,13.08
2019-05-01T20:55:12.916Z,13.06
2019-05-01T20:57:51.062Z,13.05
2019-05-01T21:00:25.589Z,13.02
2019-05-01T21:02:57.532Z,13.03
2019-05-01T21:05:34.021Z,13.02
2019-05-01T21:08:11.135Z,13.02
2019-05-01T21:10:51.088Z,13.00
2019-05-01T21:13:24.801Z,13.01
2019-05-01T21:16:01.695Z,12.99
2019-05-01T21:18:30.716Z,12.94
2019-05-01T21:21:03.498Z,12.91
2019-05-01T21:23:35.910Z,12.90
2019-05-01T21:26:08.241Z,12.90
2019-05-01T21:28:42.291Z,12.85
2019-05-01T21:31:13.912Z,12.81
2019-05-01T21:33:50.375Z,12.80
2019-05-01T21:36:19.607Z,12.81
2019-05-01T21:38:51.612Z,12.81
2019-05-01T21:41:23.574Z,12.79
2019-05-01T21:43:55.515Z,12.81
2019-05-01T21:46:27.467Z,12.81
2019-05-01T21:48:59.834Z,12.82
2019-05-01T21:51:32.848Z,12.77
2019-05-01T21:54:04.992Z,12.76
2019-05-01T21:56:41.235Z,12.75
2019-05-01T21:59:10.602Z,12.74
2019-05-01T22:01:42.683Z,12.73
2019-05-01T22:04:14.704Z,12.72
2019-05-01T22:06:51.384Z,12.72
2019-05-01T22:09:25.257Z,12.71
2019-05-01T22:11:57.265Z,12.70
2019-05-01T22:14:42.690Z,12.68
2019-05-01T22:17:22.485Z,12.66
2019-05-01T22:19:55.224Z,12.64
2019-05-01T22:22:29.126Z,12.65
2019-05-01T22:25:11.483Z,12.62
2019-05-01T22:27:46.459Z,12.61
2019-05-01T22:30:23.497Z,12.61
2019-05-01T22:32:57.212Z,12.62
2019-05-01T22:35:32.347Z,12.63
2019-05-01T22:38:06.014Z,12.61
2019-05-01T22:40:41.229Z,12.60
2019-05-01T22:43:13.310Z,12.54
2019-05-01T22:48:16.628Z,12.47
2019-05-01T22:50:53.254Z,12.45
2019-05-01T22:53:25.275Z,12.41
2019-05-01T22:56:02.122Z,12.39
2019-05-01T22:58:30.860Z,12.41
2019-05-01T23:01:04.044Z,12.44
2019-05-01T23:03:41.159Z,12.46
2019-05-01T23:06:14.429Z,12.48
2019-05-01T23:08:46.384Z,12.47
2019-05-01T23:11:20.022Z,12.47
2019-05-01T23:13:52.449Z,12.47
2019-05-01T23:16:28.789Z,12.50
2019-05-01T23:19:01.485Z,12.53
2019-05-01T23:21:33.438Z,12.51
2019-05-01T23:24:05.527Z,12.49
2019-05-01T23:26:37.471Z,12.50
2019-05-01T23:29:09.425Z,12.48
2019-05-01T23:31:41.434Z,12.46
2019-05-01T23:34:13.964Z,12.44
2019-05-01T23:36:45.935Z,12.48
2019-05-01T23:39:17.886Z,12.50
2019-05-01T23:41:49.831Z,12.48
2019-05-01T23:44:24.577Z,12.44
2019-05-01T23:46:56.525Z,12.39
2019-05-01T23:49:30.084Z,12.36
2019-05-01T23:52:03.343Z,12.35
2019-05-01T23:54:36.005Z,12.33
2019-05-01T23:57:07.949Z,12.28
2019-05-01T23:59:39.908Z,12.27
